sensor_id;sensor_type;location;lat;lon;timestamp;P1;durP1;ratioP1;P2;durP2;ratioP2
5959;SDS011;3006;50.956;7.002;2023-03-23T00:01:00;2.90;;;2.30;;
5959;SDS011;3006;50.956;7.002;2023-03-23T00:03:27;6.13;;;2.53;;
5959;SDS011;3006;50.956;7.002;2023-03-23T00:05:57;9.40;;;5.37;;
5959;SDS011;3006;50.956;7.002;2023-03-23T00:08:31;17.90;;;9.63;;
5959;SDS011;3006;50.956;7.002;2023-03-23T00:10:59;19.30;;;12.00;;
5959;SDS011;3006;50.956;7.002;2023-03-23T00:13:27;6.70;;;4.97;;
5959;SDS011;3006;50.956;7.002;2023-03-23T00:15:54;4.03;;;2.47;;
5959;SDS011;3006;50.956;7.002;2023-03-23T00:18:23;4.30;;;2.27;;
5959;SDS011;3006;50.956;7.002;2023-03-23T00:20:51;5.33;;;1.90;;
5959;SDS011;3006;50.956;7.002;2023-03-23T00:23:19;2.63;;;2.10;;
5959;SDS011;3006;50.956;7.002;2023-03-23T00:25:50;4.13;;;1.90;;
5959;SDS011;3006;50.956;7.002;2023-03-23T00:28:22;2.80;;;2.20;;
5959;SDS011;3006;50.956;7.002;2023-03-23T00:30:54;3.50;;;1.97;;
5959;SDS011;3006;50.956;7.002;2023-03-23T00:33:22;3.57;;;1.77;;
5959;SDS011;3006;50.956;7.002;2023-03-23T00:35:51;6.07;;;1.90;;
5959;SDS011;3006;50.956;7.002;2023-03-23T00:38:19;3.40;;;1.90;;
5959;SDS011;3006;50.956;7.002;2023-03-23T00:40:47;2.20;;;1.90;;
5959;SDS011;3006;50.956;7.002;2023-03-23T00:43:17;3.00;;;1.90;;
5959;SDS011;3006;50.956;7.002;2023-03-23T00:45:45;3.80;;;2.23;;
5959;SDS011;3006;50.956;7.002;2023-03-23T00:48:17;2.47;;;1.77;;
5959;SDS011;3006;50.956;7.002;2023-03-23T00:50:45;2.77;;;2.03;;
5959;SDS011;3006;50.956;7.002;2023-03-23T00:53:12;1.77;;;1.67;;
5959;SDS011;3006;50.956;7.002;2023-03-23T00:55:40;2.00;;;1.80;;
5959;SDS011;3006;50.956;7.002;2023-03-23T00:58:09;3.10;;;1.60;;
5959;SDS011;3006;50.956;7.002;2023-03-23T01:00:37;4.37;;;1.80;;
5959;SDS011;3006;50.956;7.002;2023-03-23T01:03:05;3.60;;;2.10;;
5959;SDS011;3006;50.956;7.002;2023-03-23T01:05:34;2.80;;;2.03;;
5959;SDS011;3006;50.956;7.002;2023-03-23T01:08:01;2.63;;;2.00;;
5959;SDS011;3006;50.956;7.002;2023-03-23T01:10:29;1.83;;;1.70;;
5959;SDS011;3006;50.956;7.002;2023-03-23T01:12:58;2.03;;;1.77;;
5959;SDS011;3006;50.956;7.002;2023-03-23T01:15:27;1.87;;;1.60;;
5959;SDS011;3006;50.956;7.002;2023-03-23T01:17:55;2.80;;;2.30;;
5959;SDS011;3006;50.956;7.002;2023-03-23T01:20:23;2.50;;;1.60;;
5959;SDS011;3006;50.956;7.002;2023-03-23T01:22:52;2.70;;;1.60;;
5959;SDS011;3006;50.956;7.002;2023-03-23T01:25:25;3.10;;;1.90;;
5959;SDS011;3006;50.956;7.002;2023-03-23T01:27:52;2.60;;;2.13;;
5959;SDS011;3006;50.956;7.002;2023-03-23T01:30:20;2.97;;;2.50;;
5959;SDS011;3006;50.956;7.002;2023-03-23T01:32:48;3.20;;;1.80;;
5959;SDS011;3006;50.956;7.002;2023-03-23T01:35:16;3.70;;;2.27;;
5959;SDS011;3006;50.956;7.002;2023-03-23T01:37:43;2.27;;;2.07;;
5959;SDS011;3006;50.956;7.002;2023-03-23T01:40:10;1.97;;;1.83;;
5959;SDS011;3006;50.956;7.002;2023-03-23T01:42:38;2.20;;;2.00;;
5959;SDS011;3006;50.956;7.002;2023-03-23T01:45:21;2.80;;;2.00;;
5959;SDS011;3006;50.956;7.002;2023-03-23T01:47:54;2.00;;;1.80;;
5959;SDS011;3006;50.956;7.002;2023-03-23T01:50:26;3.00;;;2.00;;
5959;SDS011;3006;50.956;7.002;2023-03-23T01:52:56;1.97;;;1.60;;
5959;SDS011;3006;50.956;7.002;2023-03-23T01:55:25;3.40;;;3.10;;
5959;SDS011;3006;50.956;7.002;2023-03-23T01:57:54;4.00;;;2.63;;
5959;SDS011;3006;50.956;7.002;2023-03-23T02:00:23;8.23;;;2.60;;
5959;SDS011;3006;50.956;7.002;2023-03-23T02:02:54;2.70;;;2.30;;
5959;SDS011;3006;50.956;7.002;2023-03-23T02:05:24;2.60;;;2.10;;
5959;SDS011;3006;50.956;7.002;2023-03-23T02:07:57;2.97;;;2.03;;
5959;SDS011;3006;50.956;7.002;2023-03-23T02:10:29;3.30;;;2.00;;
5959;SDS011;3006;50.956;7.002;2023-03-23T02:12:57;3.00;;;2.17;;
5959;SDS011;3006;50.956;7.002;2023-03-23T02:15:25;2.60;;;2.30;;
5959;SDS011;3006;50.956;7.002;2023-03-23T02:17:57;4.43;;;2.17;;
5959;SDS011;3006;50.956;7.002;2023-03-23T02:23:36;2.27;;;2.07;;
5959;SDS011;3006;50.956;7.002;2023-03-23T02:26:18;4.20;;;2.53;;
5959;SDS011;3006;50.956;7.002;2023-03-23T02:29:06;5.23;;;2.53;;
5959;SDS011;3006;50.956;7.002;2023-03-23T02:31:51;2.40;;;2.20;;
5959;SDS011;3006;50.956;7.002;2023-03-23T02:34:40;3.70;;;2.17;;
5959;SDS011;3006;50.956;7.002;2023-03-23T02:37:09;3.13;;;2.37;;
5959;SDS011;3006;50.956;7.002;2023-03-23T02:39:41;2.67;;;2.30;;
5959;SDS011;3006;50.956;7.002;2023-03-23T02:42:13;6.23;;;2.50;;
5959;SDS011;3006;50.956;7.002;2023-03-23T02:44:44;4.03;;;2.23;;
5959;SDS011;3006;50.956;7.002;2023-03-23T02:47:14;3.07;;;1.80;;
5959;SDS011;3006;50.956;7.002;2023-03-23T02:49:46;4.07;;;2.13;;
5959;SDS011;3006;50.956;7.002;2023-03-23T02:52:19;3.20;;;2.40;;
5959;SDS011;3006;50.956;7.002;2023-03-23T02:54:49;2.23;;;2.00;;
5959;SDS011;3006;50.956;7.002;2023-03-23T02:57:18;3.07;;;2.10;;
5959;SDS011;3006;50.956;7.002;2023-03-23T02:59:46;4.37;;;3.57;;
5959;SDS011;3006;50.956;7.002;2023-03-23T03:02:14;2.60;;;1.80;;
5959;SDS011;3006;50.956;7.002;2023-03-23T03:04:48;4.73;;;2.30;;
5959;SDS011;3006;50.956;7.002;2023-03-23T03:10:18;2.80;;;2.37;;
5959;SDS011;3006;50.956;7.002;2023-03-23T03:12:51;3.10;;;1.93;;
5959;SDS011;3006;50.956;7.002;2023-03-23T03:15:26;3.47;;;2.27;;
5959;SDS011;3006;50.956;7.002;2023-03-23T03:17:59;3.23;;;2.17;;
5959;SDS011;3006;50.956;7.002;2023-03-23T03:20:33;1.87;;;1.50;;
5959;SDS011;3006;50.956;7.002;2023-03-23T03:23:05;2.30;;;1.90;;
5959;SDS011;3006;50.956;7.002;2023-03-23T03:25:35;2.00;;;1.67;;
5959;SDS011;3006;50.956;7.002;2023-03-23T03:28:03;4.77;;;2.87;;
5959;SDS011;3006;50.956;7.002;2023-03-23T03:30:39;3.07;;;2.13;;
5959;SDS011;3006;50.956;7.002;2023-03-23T03:33:10;2.23;;;1.90;;
5959;SDS011;3006;50.956;7.002;2023-03-23T03:35:39;3.50;;;1.70;;
5959;SDS011;3006;50.956;7.002;2023-03-23T03:38:10;3.33;;;2.40;;
5959;SDS011;3006;50.956;7.002;2023-03-23T03:40:38;1.80;;;1.70;;
5959;SDS011;3006;50.956;7.002;2023-03-23T03:43:05;2.10;;;1.80;;
5959;SDS011;3006;50.956;7.002;2023-03-23T03:45:33;2.13;;;1.60;;
5959;SDS011;3006;50.956;7.002;2023-03-23T03:48:00;1.83;;;1.63;;
5959;SDS011;3006;50.956;7.002;2023-03-23T03:50:28;2.63;;;1.97;;
5959;SDS011;3006;50.956;7.002;2023-03-23T03:52:57;2.57;;;1.80;;
5959;SDS011;3006;50.956;7.002;2023-03-23T03:55:24;3.27;;;1.90;;
5959;SDS011;3006;50.956;7.002;2023-03-23T03:57:53;2.90;;;1.90;;
5959;SDS011;3006;50.956;7.002;2023-03-23T04:00:50;2.13;;;1.93;;
5959;SDS011;3006;50.956;7.002;2023-03-23T04:03:22;2.80;;;1.80;;
5959;SDS011;3006;50.956;7.002;2023-03-23T04:06:05;1.60;;;1.50;;
5959;SDS011;3006;50.956;7.002;2023-03-23T04:08:36;2.10;;;1.83;;
5959;SDS011;3006;50.956;7.002;2023-03-23T04:11:04;3.63;;;1.53;;
5959;SDS011;3006;50.956;7.002;2023-03-23T04:13:32;1.70;;;1.60;;
5959;SDS011;3006;50.956;7.002;2023-03-23T04:16:04;2.60;;;1.80;;
5959;SDS011;3006;50.956;7.002;2023-03-23T04:18:33;1.97;;;1.70;;
5959;SDS011;3006;50.956;7.002;2023-03-23T04:21:00;3.40;;;2.10;;
5959;SDS011;3006;50.956;7.002;2023-03-23T04:23:28;2.90;;;1.80;;
5959;SDS011;3006;50.956;7.002;2023-03-23T04:26:03;2.00;;;1.80;;
5959;SDS011;3006;50.956;7.002;2023-03-23T04:28:37;4.37;;;3.30;;
5959;SDS011;3006;50.956;7.002;2023-03-23T04:31:32;2.43;;;1.80;;
5959;SDS011;3006;50.956;7.002;2023-03-23T04:34:09;3.10;;;2.27;;
5959;SDS011;3006;50.956;7.002;2023-03-23T04:36:42;3.80;;;2.43;;
5959;SDS011;3006;50.956;7.002;2023-03-23T04:39:14;2.27;;;2.00;;
5959;SDS011;3006;50.956;7.002;2023-03-23T04:41:44;2.13;;;1.93;;
5959;SDS011;3006;50.956;7.002;2023-03-23T04:44:22;2.20;;;2.00;;
5959;SDS011;3006;50.956;7.002;2023-03-23T04:47:00;2.43;;;2.20;;
5959;SDS011;3006;50.956;7.002;2023-03-23T04:49:29;2.80;;;2.10;;
5959;SDS011;3006;50.956;7.002;2023-03-23T04:52:09;4.00;;;2.07;;
5959;SDS011;3006;50.956;7.002;2023-03-23T04:54:42;2.57;;;2.20;;
5959;SDS011;3006;50.956;7.002;2023-03-23T04:57:12;2.10;;;1.90;;
5959;SDS011;3006;50.956;7.002;2023-03-23T04:59:47;2.20;;;2.00;;
5959;SDS011;3006;50.956;7.002;2023-03-23T05:02:19;2.17;;;1.97;;
5959;SDS011;3006;50.956;7.002;2023-03-23T05:04:47;4.87;;;2.50;;
5959;SDS011;3006;50.956;7.002;2023-03-23T05:07:19;3.23;;;2.17;;
5959;SDS011;3006;50.956;7.002;2023-03-23T05:09:47;3.00;;;2.13;;
5959;SDS011;3006;50.956;7.002;2023-03-23T05:12:20;2.43;;;1.90;;
5959;SDS011;3006;50.956;7.002;2023-03-23T05:14:58;3.53;;;2.17;;
5959;SDS011;3006;50.956;7.002;2023-03-23T05:17:28;2.97;;;2.23;;
5959;SDS011;3006;50.956;7.002;2023-03-23T05:20:00;2.43;;;2.13;;
5959;SDS011;3006;50.956;7.002;2023-03-23T05:22:40;2.50;;;2.20;;
5959;SDS011;3006;50.956;7.002;2023-03-23T05:25:10;3.20;;;2.00;;
5959;SDS011;3006;50.956;7.002;2023-03-23T05:27:46;2.23;;;2.07;;
5959;SDS011;3006;50.956;7.002;2023-03-23T05:30:40;2.50;;;1.90;;
5959;SDS011;3006;50.956;7.002;2023-03-23T05:33:11;2.50;;;2.30;;
5959;SDS011;3006;50.956;7.002;2023-03-23T05:36:01;2.70;;;1.87;;
5959;SDS011;3006;50.956;7.002;2023-03-23T05:38:37;2.50;;;2.30;;
5959;SDS011;3006;50.956;7.002;2023-03-23T05:41:09;2.00;;;1.80;;
5959;SDS011;3006;50.956;7.002;2023-03-23T05:43:41;3.20;;;2.87;;
5959;SDS011;3006;50.956;7.002;2023-03-23T05:46:22;2.20;;;2.00;;
5959;SDS011;3006;50.956;7.002;2023-03-23T05:48:51;3.27;;;2.53;;
5959;SDS011;3006;50.956;7.002;2023-03-23T05:51:22;2.77;;;2.20;;
5959;SDS011;3006;50.956;7.002;2023-03-23T05:53:49;4.13;;;2.53;;
5959;SDS011;3006;50.956;7.002;2023-03-23T05:56:17;4.60;;;2.63;;
5959;SDS011;3006;50.956;7.002;2023-03-23T05:59:04;3.40;;;2.10;;
5959;SDS011;3006;50.956;7.002;2023-03-23T06:01:33;3.50;;;2.77;;
5959;SDS011;3006;50.956;7.002;2023-03-23T06:04:01;4.03;;;2.77;;
5959;SDS011;3006;50.956;7.002;2023-03-23T06:06:38;4.70;;;2.63;;
5959;SDS011;3006;50.956;7.002;2023-03-23T06:09:08;4.50;;;2.83;;
5959;SDS011;3006;50.956;7.002;2023-03-23T06:12:02;3.97;;;2.87;;
5959;SDS011;3006;50.956;7.002;2023-03-23T06:14:38;4.00;;;2.60;;
5959;SDS011;3006;50.956;7.002;2023-03-23T06:17:06;6.63;;;2.50;;
5959;SDS011;3006;50.956;7.002;2023-03-23T06:19:33;3.90;;;2.17;;
5959;SDS011;3006;50.956;7.002;2023-03-23T06:22:07;3.93;;;2.40;;
5959;SDS011;3006;50.956;7.002;2023-03-23T06:24:54;4.23;;;2.50;;
5959;SDS011;3006;50.956;7.002;2023-03-23T06:27:28;4.33;;;2.30;;
5959;SDS011;3006;50.956;7.002;2023-03-23T06:29:57;5.50;;;2.50;;
5959;SDS011;3006;50.956;7.002;2023-03-23T06:32:25;3.83;;;3.03;;
5959;SDS011;3006;50.956;7.002;2023-03-23T06:34:56;3.83;;;2.30;;
5959;SDS011;3006;50.956;7.002;2023-03-23T06:38:00;4.07;;;2.60;;
5959;SDS011;3006;50.956;7.002;2023-03-23T06:40:36;4.10;;;2.93;;
5959;SDS011;3006;50.956;7.002;2023-03-23T06:43:04;4.70;;;2.47;;
5959;SDS011;3006;50.956;7.002;2023-03-23T06:45:54;6.10;;;2.50;;
5959;SDS011;3006;50.956;7.002;2023-03-23T06:48:24;5.30;;;2.17;;
5959;SDS011;3006;50.956;7.002;2023-03-23T06:50:51;2.93;;;2.40;;
5959;SDS011;3006;50.956;7.002;2023-03-23T06:53:21;4.97;;;2.57;;
5959;SDS011;3006;50.956;7.002;2023-03-23T06:55:50;3.20;;;2.23;;
5959;SDS011;3006;50.956;7.002;2023-03-23T06:58:17;5.67;;;2.67;;
5959;SDS011;3006;50.956;7.002;2023-03-23T07:00:44;8.10;;;2.33;;
5959;SDS011;3006;50.956;7.002;2023-03-23T07:03:15;5.83;;;2.50;;
5959;SDS011;3006;50.956;7.002;2023-03-23T07:05:45;2.57;;;2.37;;
5959;SDS011;3006;50.956;7.002;2023-03-23T07:08:13;5.77;;;2.40;;
5959;SDS011;3006;50.956;7.002;2023-03-23T07:10:45;5.30;;;2.30;;
5959;SDS011;3006;50.956;7.002;2023-03-23T07:13:13;10.70;;;2.13;;
5959;SDS011;3006;50.956;7.002;2023-03-23T07:15:49;3.37;;;1.80;;
5959;SDS011;3006;50.956;7.002;2023-03-23T07:18:18;3.77;;;1.90;;
5959;SDS011;3006;50.956;7.002;2023-03-23T07:20:47;5.30;;;2.20;;
5959;SDS011;3006;50.956;7.002;2023-03-23T07:23:15;4.63;;;2.10;;
5959;SDS011;3006;50.956;7.002;2023-03-23T07:25:48;3.80;;;2.40;;
5959;SDS011;3006;50.956;7.002;2023-03-23T07:28:20;2.03;;;1.77;;
5959;SDS011;3006;50.956;7.002;2023-03-23T07:30:48;3.97;;;1.90;;
5959;SDS011;3006;50.956;7.002;2023-03-23T07:33:16;4.00;;;2.10;;
5959;SDS011;3006;50.956;7.002;2023-03-23T07:35:45;2.17;;;1.60;;
5959;SDS011;3006;50.956;7.002;2023-03-23T07:38:15;8.00;;;1.83;;
5959;SDS011;3006;50.956;7.002;2023-03-23T07:40:46;4.17;;;1.83;;
5959;SDS011;3006;50.956;7.002;2023-03-23T07:43:16;4.03;;;1.73;;
5959;SDS011;3006;50.956;7.002;2023-03-23T07:46:02;3.50;;;1.70;;
5959;SDS011;3006;50.956;7.002;2023-03-23T07:48:51;2.63;;;1.80;;
5959;SDS011;3006;50.956;7.002;2023-03-23T07:51:22;5.33;;;2.07;;
5959;SDS011;3006;50.956;7.002;2023-03-23T07:53:50;3.93;;;1.70;;
5959;SDS011;3006;50.956;7.002;2023-03-23T07:56:40;4.67;;;2.23;;
5959;SDS011;3006;50.956;7.002;2023-03-23T07:59:34;3.40;;;1.70;;
5959;SDS011;3006;50.956;7.002;2023-03-23T08:02:02;6.70;;;1.97;;
5959;SDS011;3006;50.956;7.002;2023-03-23T08:04:40;3.67;;;1.87;;
5959;SDS011;3006;50.956;7.002;2023-03-23T08:07:10;4.07;;;1.83;;
5959;SDS011;3006;50.956;7.002;2023-03-23T08:10:04;2.97;;;1.53;;
5959;SDS011;3006;50.956;7.002;2023-03-23T08:12:58;5.47;;;1.90;;
5959;SDS011;3006;50.956;7.002;2023-03-23T08:15:42;2.13;;;1.60;;
5959;SDS011;3006;50.956;7.002;2023-03-23T08:18:21;8.83;;;1.73;;
5959;SDS011;3006;50.956;7.002;2023-03-23T08:21:17;5.53;;;2.07;;
5959;SDS011;3006;50.956;7.002;2023-03-23T08:24:03;2.80;;;1.83;;
5959;SDS011;3006;50.956;7.002;2023-03-23T08:26:43;2.80;;;1.60;;
5959;SDS011;3006;50.956;7.002;2023-03-23T08:29:10;3.80;;;1.73;;
5959;SDS011;3006;50.956;7.002;2023-03-23T08:31:38;1.80;;;1.40;;
5959;SDS011;3006;50.956;7.002;2023-03-23T08:34:25;3.83;;;1.77;;
5959;SDS011;3006;50.956;7.002;2023-03-23T08:37:12;5.50;;;1.87;;
5959;SDS011;3006;50.956;7.002;2023-03-23T08:39:53;3.80;;;1.80;;
5959;SDS011;3006;50.956;7.002;2023-03-23T08:42:39;4.10;;;1.67;;
5959;SDS011;3006;50.956;7.002;2023-03-23T08:45:14;3.33;;;1.73;;
5959;SDS011;3006;50.956;7.002;2023-03-23T08:47:51;4.73;;;2.27;;
5959;SDS011;3006;50.956;7.002;2023-03-23T08:50:38;6.37;;;2.40;;
5959;SDS011;3006;50.956;7.002;2023-03-23T08:53:36;3.40;;;1.70;;
5959;SDS011;3006;50.956;7.002;2023-03-23T08:56:42;3.17;;;1.60;;
5959;SDS011;3006;50.956;7.002;2023-03-23T08:59:33;7.73;;;1.70;;
5959;SDS011;3006;50.956;7.002;2023-03-23T09:02:20;3.30;;;2.03;;
5959;SDS011;3006;50.956;7.002;2023-03-23T09:05:00;4.43;;;2.07;;
5959;SDS011;3006;50.956;7.002;2023-03-23T09:07:37;4.90;;;2.77;;
5959;SDS011;3006;50.956;7.002;2023-03-23T09:10:06;3.37;;;1.90;;
5959;SDS011;3006;50.956;7.002;2023-03-23T09:12:34;3.00;;;2.00;;
5959;SDS011;3006;50.956;7.002;2023-03-23T09:15:02;5.07;;;2.10;;
5959;SDS011;3006;50.956;7.002;2023-03-23T09:17:33;4.80;;;1.83;;
5959;SDS011;3006;50.956;7.002;2023-03-23T09:20:01;6.10;;;2.07;;
5959;SDS011;3006;50.956;7.002;2023-03-23T09:22:36;4.73;;;2.00;;
5959;SDS011;3006;50.956;7.002;2023-03-23T09:25:04;3.60;;;1.87;;
5959;SDS011;3006;50.956;7.002;2023-03-23T09:27:33;4.67;;;1.83;;
5959;SDS011;3006;50.956;7.002;2023-03-23T09:30:02;9.30;;;1.90;;
5959;SDS011;3006;50.956;7.002;2023-03-23T09:32:31;3.83;;;1.80;;
5959;SDS011;3006;50.956;7.002;2023-03-23T09:35:00;5.77;;;1.77;;
5959;SDS011;3006;50.956;7.002;2023-03-23T09:37:28;9.43;;;3.00;;
5959;SDS011;3006;50.956;7.002;2023-03-23T09:39:55;8.10;;;2.23;;
5959;SDS011;3006;50.956;7.002;2023-03-23T09:42:31;5.53;;;2.20;;
5959;SDS011;3006;50.956;7.002;2023-03-23T09:45:10;6.17;;;1.70;;
5959;SDS011;3006;50.956;7.002;2023-03-23T09:47:46;3.77;;;1.40;;
5959;SDS011;3006;50.956;7.002;2023-03-23T09:50:30;5.60;;;2.13;;
5959;SDS011;3006;50.956;7.002;2023-03-23T09:53:00;3.80;;;1.77;;
5959;SDS011;3006;50.956;7.002;2023-03-23T09:55:31;2.73;;;1.87;;
5959;SDS011;3006;50.956;7.002;2023-03-23T09:58:01;7.30;;;2.00;;
5959;SDS011;3006;50.956;7.002;2023-03-23T10:00:39;3.60;;;2.10;;
5959;SDS011;3006;50.956;7.002;2023-03-23T10:03:10;8.00;;;2.20;;
5959;SDS011;3006;50.956;7.002;2023-03-23T10:05:41;3.60;;;1.87;;
5959;SDS011;3006;50.956;7.002;2023-03-23T10:08:11;7.10;;;1.80;;
5959;SDS011;3006;50.956;7.002;2023-03-23T10:10:45;4.00;;;1.40;;
5959;SDS011;3006;50.956;7.002;2023-03-23T10:13:23;7.27;;;2.00;;
5959;SDS011;3006;50.956;7.002;2023-03-23T10:15:58;6.40;;;2.20;;
5959;SDS011;3006;50.956;7.002;2023-03-23T10:18:27;4.13;;;1.70;;
5959;SDS011;3006;50.956;7.002;2023-03-23T10:20:58;4.23;;;1.67;;
5959;SDS011;3006;50.956;7.002;2023-03-23T10:26:21;4.30;;;1.70;;
5959;SDS011;3006;50.956;7.002;2023-03-23T10:29:03;4.87;;;1.33;;
5959;SDS011;3006;50.956;7.002;2023-03-23T10:31:39;3.47;;;1.70;;
5959;SDS011;3006;50.956;7.002;2023-03-23T10:34:10;2.93;;;1.50;;
5959;SDS011;3006;50.956;7.002;2023-03-23T10:36:42;4.13;;;2.10;;
5959;SDS011;3006;50.956;7.002;2023-03-23T10:39:19;4.37;;;2.60;;
5959;SDS011;3006;50.956;7.002;2023-03-23T10:41:49;3.83;;;2.63;;
5959;SDS011;3006;50.956;7.002;2023-03-23T10:44:18;4.83;;;1.57;;
5959;SDS011;3006;50.956;7.002;2023-03-23T10:46:48;1.53;;;1.20;;
5959;SDS011;3006;50.956;7.002;2023-03-23T10:49:20;2.70;;;1.10;;
5959;SDS011;3006;50.956;7.002;2023-03-23T10:51:55;2.87;;;1.60;;
5959;SDS011;3006;50.956;7.002;2023-03-23T10:54:27;8.63;;;3.30;;
5959;SDS011;3006;50.956;7.002;2023-03-23T10:57:00;5.07;;;3.10;;
5959;SDS011;3006;50.956;7.002;2023-03-23T10:59:29;6.53;;;2.73;;
5959;SDS011;3006;50.956;7.002;2023-03-23T11:01:58;2.83;;;1.60;;
5959;SDS011;3006;50.956;7.002;2023-03-23T11:04:29;2.80;;;1.40;;
5959;SDS011;3006;50.956;7.002;2023-03-23T11:06:58;3.10;;;1.60;;
5959;SDS011;3006;50.956;7.002;2023-03-23T11:09:34;2.27;;;1.40;;
5959;SDS011;3006;50.956;7.002;2023-03-23T11:12:03;2.20;;;1.60;;
5959;SDS011;3006;50.956;7.002;2023-03-23T11:14:33;3.50;;;1.20;;
5959;SDS011;3006;50.956;7.002;2023-03-23T11:17:05;3.43;;;1.67;;
5959;SDS011;3006;50.956;7.002;2023-03-23T11:19:46;3.80;;;1.20;;
5959;SDS011;3006;50.956;7.002;2023-03-23T11:22:15;4.10;;;1.67;;
5959;SDS011;3006;50.956;7.002;2023-03-23T11:24:47;2.43;;;1.50;;
5959;SDS011;3006;50.956;7.002;2023-03-23T11:27:18;3.57;;;1.83;;
5959;SDS011;3006;50.956;7.002;2023-03-23T11:29:49;3.13;;;1.93;;
5959;SDS011;3006;50.956;7.002;2023-03-23T11:32:19;3.60;;;2.10;;
5959;SDS011;3006;50.956;7.002;2023-03-23T11:34:53;5.07;;;2.33;;
5959;SDS011;3006;50.956;7.002;2023-03-23T11:37:25;3.47;;;1.70;;
5959;SDS011;3006;50.956;7.002;2023-03-23T11:39:57;3.67;;;1.47;;
5959;SDS011;3006;50.956;7.002;2023-03-23T11:42:26;2.33;;;1.70;;
5959;SDS011;3006;50.956;7.002;2023-03-23T11:45:13;3.10;;;1.73;;
5959;SDS011;3006;50.956;7.002;2023-03-23T11:47:49;7.37;;;1.30;;
5959;SDS011;3006;50.956;7.002;2023-03-23T11:50:23;2.20;;;1.20;;
5959;SDS011;3006;50.956;7.002;2023-03-23T11:52:54;3.00;;;1.30;;
5959;SDS011;3006;50.956;7.002;2023-03-23T11:55:31;2.00;;;1.00;;
5959;SDS011;3006;50.956;7.002;2023-03-23T11:58:03;2.03;;;1.10;;
5959;SDS011;3006;50.956;7.002;2023-03-23T12:00:38;1.77;;;0.87;;
5959;SDS011;3006;50.956;7.002;2023-03-23T12:03:35;1.03;;;0.80;;
5959;SDS011;3006;50.956;7.002;2023-03-23T12:06:27;1.13;;;0.90;;
5959;SDS011;3006;50.956;7.002;2023-03-23T12:09:05;1.77;;;0.90;;
5959;SDS011;3006;50.956;7.002;2023-03-23T12:11:50;2.40;;;1.00;;
5959;SDS011;3006;50.956;7.002;2023-03-23T12:14:26;1.20;;;1.10;;
5959;SDS011;3006;50.956;7.002;2023-03-23T12:17:06;2.83;;;1.00;;
5959;SDS011;3006;50.956;7.002;2023-03-23T12:19:44;3.33;;;1.10;;
5959;SDS011;3006;50.956;7.002;2023-03-23T12:22:24;1.83;;;0.90;;
5959;SDS011;3006;50.956;7.002;2023-03-23T12:25:05;4.50;;;1.90;;
5959;SDS011;3006;50.956;7.002;2023-03-23T12:27:45;3.23;;;1.20;;
5959;SDS011;3006;50.956;7.002;2023-03-23T12:30:24;2.23;;;1.30;;
5959;SDS011;3006;50.956;7.002;2023-03-23T12:33:02;2.07;;;1.40;;
5959;SDS011;3006;50.956;7.002;2023-03-23T12:35:39;3.97;;;1.33;;
5959;SDS011;3006;50.956;7.002;2023-03-23T12:38:29;1.70;;;1.10;;
5959;SDS011;3006;50.956;7.002;2023-03-23T12:41:09;2.40;;;1.30;;
5959;SDS011;3006;50.956;7.002;2023-03-23T12:43:44;1.80;;;1.20;;
5959;SDS011;3006;50.956;7.002;2023-03-23T12:46:27;5.30;;;2.00;;
5959;SDS011;3006;50.956;7.002;2023-03-23T12:49:17;4.97;;;2.20;;
5959;SDS011;3006;50.956;7.002;2023-03-23T12:51:49;3.27;;;1.57;;
5959;SDS011;3006;50.956;7.002;2023-03-23T12:54:23;4.17;;;1.63;;
5959;SDS011;3006;50.956;7.002;2023-03-23T12:56:58;7.50;;;2.07;;
5959;SDS011;3006;50.956;7.002;2023-03-23T12:59:32;4.00;;;2.13;;
5959;SDS011;3006;50.956;7.002;2023-03-23T13:02:08;3.03;;;1.60;;
5959;SDS011;3006;50.956;7.002;2023-03-23T13:04:43;4.30;;;1.23;;
5959;SDS011;3006;50.956;7.002;2023-03-23T13:07:14;7.47;;;1.50;;
5959;SDS011;3006;50.956;7.002;2023-03-23T13:09:47;2.70;;;1.40;;
5959;SDS011;3006;50.956;7.002;2023-03-23T13:12:18;5.73;;;1.90;;
5959;SDS011;3006;50.956;7.002;2023-03-23T13:14:48;3.70;;;1.30;;
5959;SDS011;3006;50.956;7.002;2023-03-23T13:17:24;4.93;;;1.77;;
5959;SDS011;3006;50.956;7.002;2023-03-23T13:20:03;4.17;;;1.57;;
5959;SDS011;3006;50.956;7.002;2023-03-23T13:22:45;5.60;;;1.60;;
5959;SDS011;3006;50.956;7.002;2023-03-23T13:25:18;2.70;;;1.17;;
5959;SDS011;3006;50.956;7.002;2023-03-23T13:27:56;2.90;;;1.67;;
5959;SDS011;3006;50.956;7.002;2023-03-23T13:30:24;5.43;;;1.37;;
5959;SDS011;3006;50.956;7.002;2023-03-23T13:33:00;3.60;;;1.70;;
5959;SDS011;3006;50.956;7.002;2023-03-23T13:35:34;3.30;;;1.70;;
5959;SDS011;3006;50.956;7.002;2023-03-23T13:38:11;3.47;;;1.80;;
5959;SDS011;3006;50.956;7.002;2023-03-23T13:40:43;3.93;;;1.60;;
5959;SDS011;3006;50.956;7.002;2023-03-23T13:43:12;3.83;;;2.23;;
5959;SDS011;3006;50.956;7.002;2023-03-23T13:45:43;2.90;;;1.60;;
5959;SDS011;3006;50.956;7.002;2023-03-23T13:48:19;5.70;;;2.90;;
5959;SDS011;3006;50.956;7.002;2023-03-23T13:50:54;4.20;;;1.40;;
5959;SDS011;3006;50.956;7.002;2023-03-23T13:53:24;3.10;;;2.30;;
5959;SDS011;3006;50.956;7.002;2023-03-23T13:56:05;3.93;;;1.87;;
5959;SDS011;3006;50.956;7.002;2023-03-23T13:58:45;4.13;;;1.73;;
5959;SDS011;3006;50.956;7.002;2023-03-23T14:01:15;7.70;;;2.30;;
5959;SDS011;3006;50.956;7.002;2023-03-23T14:03:43;8.40;;;1.70;;
5959;SDS011;3006;50.956;7.002;2023-03-23T14:06:17;9.30;;;4.53;;
5959;SDS011;3006;50.956;7.002;2023-03-23T14:09:06;3.40;;;2.10;;
5959;SDS011;3006;50.956;7.002;2023-03-23T14:11:45;4.77;;;1.90;;
5959;SDS011;3006;50.956;7.002;2023-03-23T14:14:17;2.70;;;1.60;;
5959;SDS011;3006;50.956;7.002;2023-03-23T14:16:49;3.90;;;1.70;;
5959;SDS011;3006;50.956;7.002;2023-03-23T14:19:18;4.47;;;1.70;;
5959;SDS011;3006;50.956;7.002;2023-03-23T14:21:50;9.67;;;2.17;;
5959;SDS011;3006;50.956;7.002;2023-03-23T14:24:21;9.57;;;2.43;;
5959;SDS011;3006;50.956;7.002;2023-03-23T14:26:50;5.63;;;2.17;;
5959;SDS011;3006;50.956;7.002;2023-03-23T14:29:19;2.33;;;1.80;;
5959;SDS011;3006;50.956;7.002;2023-03-23T14:31:52;3.70;;;2.23;;
5959;SDS011;3006;50.956;7.002;2023-03-23T14:34:21;4.37;;;2.20;;
5959;SDS011;3006;50.956;7.002;2023-03-23T14:36:53;6.90;;;2.20;;
5959;SDS011;3006;50.956;7.002;2023-03-23T14:39:23;7.80;;;4.40;;
5959;SDS011;3006;50.956;7.002;2023-03-23T14:41:53;9.53;;;5.10;;
5959;SDS011;3006;50.956;7.002;2023-03-23T14:44:22;18.10;;;9.20;;
5959;SDS011;3006;50.956;7.002;2023-03-23T14:46:51;11.67;;;4.50;;
5959;SDS011;3006;50.956;7.002;2023-03-23T14:49:24;15.40;;;8.73;;
5959;SDS011;3006;50.956;7.002;2023-03-23T14:52:01;6.30;;;2.50;;
5959;SDS011;3006;50.956;7.002;2023-03-23T14:54:31;7.93;;;1.80;;
5959;SDS011;3006;50.956;7.002;2023-03-23T14:57:02;4.63;;;2.27;;
5959;SDS011;3006;50.956;7.002;2023-03-23T14:59:35;9.13;;;4.73;;
5959;SDS011;3006;50.956;7.002;2023-03-23T15:02:02;7.73;;;4.07;;
5959;SDS011;3006;50.956;7.002;2023-03-23T15:04:30;2.67;;;1.73;;
5959;SDS011;3006;50.956;7.002;2023-03-23T15:07:00;2.83;;;2.20;;
5959;SDS011;3006;50.956;7.002;2023-03-23T15:09:29;4.60;;;1.70;;
5959;SDS011;3006;50.956;7.002;2023-03-23T15:11:59;5.10;;;2.03;;
5959;SDS011;3006;50.956;7.002;2023-03-23T15:14:27;4.80;;;1.97;;
5959;SDS011;3006;50.956;7.002;2023-03-23T15:16:57;3.93;;;1.70;;
5959;SDS011;3006;50.956;7.002;2023-03-23T15:19:27;4.10;;;1.67;;
5959;SDS011;3006;50.956;7.002;2023-03-23T15:22:05;3.90;;;1.80;;
5959;SDS011;3006;50.956;7.002;2023-03-23T15:24:39;4.33;;;1.63;;
5959;SDS011;3006;50.956;7.002;2023-03-23T15:27:12;5.90;;;1.90;;
5959;SDS011;3006;50.956;7.002;2023-03-23T15:29:47;7.60;;;1.90;;
5959;SDS011;3006;50.956;7.002;2023-03-23T15:32:22;7.60;;;1.93;;
5959;SDS011;3006;50.956;7.002;2023-03-23T15:34:51;4.17;;;1.67;;
5959;SDS011;3006;50.956;7.002;2023-03-23T15:37:21;4.60;;;2.10;;
5959;SDS011;3006;50.956;7.002;2023-03-23T15:39:51;2.90;;;1.83;;
5959;SDS011;3006;50.956;7.002;2023-03-23T15:42:22;6.43;;;2.27;;
5959;SDS011;3006;50.956;7.002;2023-03-23T15:44:57;7.23;;;2.20;;
5959;SDS011;3006;50.956;7.002;2023-03-23T15:47:36;5.60;;;1.80;;
5959;SDS011;3006;50.956;7.002;2023-03-23T15:50:11;5.83;;;1.93;;
5959;SDS011;3006;50.956;7.002;2023-03-23T15:52:41;3.70;;;1.67;;
5959;SDS011;3006;50.956;7.002;2023-03-23T15:55:18;2.80;;;1.70;;
5959;SDS011;3006;50.956;7.002;2023-03-23T15:57:47;4.17;;;1.80;;
5959;SDS011;3006;50.956;7.002;2023-03-23T16:00:19;5.33;;;1.60;;
5959;SDS011;3006;50.956;7.002;2023-03-23T16:02:49;3.53;;;2.13;;